createdAt,value
2022-08-22T00:00:32.046Z,52.81
2022-08-22T00:01:32.029Z,53.14
2022-08-22T00:02:32.088Z,52.85
2022-08-22T00:02:57.281Z,54.13
2022-08-22T00:03:03.384Z,54.26
2022-08-22T00:03:07.178Z,53.77
2022-08-22T00:03:08.535Z,53.19
2022-08-22T00:03:15.030Z,53.23
2022-08-22T00:03:32.033Z,52.87
2022-08-22T00:04:34.426Z,52.4
2022-08-22T00:05:32.024Z,53.13
2022-08-22T00:06:32.029Z,52.38
2022-08-22T00:07:32.023Z,52.9
2022-08-22T00:08:32.034Z,52.42
2022-08-22T00:09:32.052Z,52.98
2022-08-22T00:10:32.014Z,52.44
2022-08-22T00:11:32.014Z,52.98
2022-08-22T00:12:32.027Z,52.43
2022-08-22T00:13:32.026Z,52.85
2022-08-22T00:14:32.018Z,52.38
2022-08-22T00:15:42.848Z,52.95
2022-08-22T00:16:32.012Z,52.66
2022-08-22T00:17:32.032Z,52.85
2022-08-22T00:18:32.014Z,52.59
2022-08-22T00:19:32.021Z,52.83
2022-08-22T00:20:32.009Z,52.9
2022-08-22T00:21:32.005Z,52.88
2022-08-22T00:22:32.001Z,52.43
2022-08-22T00:23:32.026Z,53.04
2022-08-22T00:24:32.010Z,52.9
2022-08-22T00:25:32.007Z,52.42
2022-08-22T00:26:32.006Z,52.31
2022-08-22T00:27:32.002Z,52.54
2022-08-22T00:28:32.010Z,52.34
2022-08-22T00:29:31.999Z,52.95
2022-08-22T00:30:31.998Z,52.08
2022-08-22T00:31:32.000Z,52.72
2022-08-22T00:32:31.996Z,52.65
2022-08-22T00:33:32.005Z,52.89
2022-08-22T00:34:31.999Z,52.44
2022-08-22T00:35:32.020Z,52.85
2022-08-22T00:36:31.989Z,52.36
2022-08-22T00:37:31.988Z,52.39
2022-08-22T00:38:31.990Z,52.27
2022-08-22T00:39:31.985Z,52.83
2022-08-22T00:40:31.995Z,52.5
2022-08-22T00:41:31.989Z,52.95
2022-08-22T00:42:32.370Z,52.15
2022-08-22T00:43:31.978Z,52.67
2022-08-22T00:44:31.978Z,52.36
2022-08-22T00:45:31.993Z,52.96
2022-08-22T00:46:31.992Z,52.71
2022-08-22T00:47:33.370Z,52.74
2022-08-22T00:48:31.977Z,52.26
2022-08-22T00:49:31.979Z,52.83
2022-08-22T00:50:31.975Z,52.28
2022-08-22T00:51:31.987Z,52.56
2022-08-22T00:52:31.970Z,52.2
2022-08-22T00:53:31.971Z,52.56
2022-08-22T00:54:31.968Z,52.03
2022-08-22T00:55:34.879Z,52.5
2022-08-22T00:56:31.980Z,52.49
2022-08-22T00:57:31.964Z,52.65
2022-08-22T00:58:31.967Z,52.41
2022-08-22T00:59:31.960Z,52.9
2022-08-22T01:00:34.351Z,52.51
2022-08-22T01:01:32.031Z,52.86
2022-08-22T01:02:31.956Z,52.58
2022-08-22T01:03:31.968Z,52.63
2022-08-22T01:04:31.971Z,51.92
2022-08-22T01:05:31.958Z,52.46
2022-08-22T01:06:31.955Z,52.16
2022-08-22T01:07:38.050Z,52.61
2022-08-22T01:08:31.949Z,51.7
2022-08-22T01:09:31.971Z,52.11
2022-08-22T01:10:31.962Z,52.42
2022-08-22T01:11:31.943Z,52.21
2022-08-22T01:12:31.956Z,52.5
2022-08-22T01:13:31.945Z,52.63
2022-08-22T01:14:34.188Z,52.16
2022-08-22T01:15:31.954Z,52.38
2022-08-22T01:16:31.945Z,52.28
2022-08-22T01:17:31.943Z,52.7
2022-08-22T01:18:31.943Z,52.47
2022-08-22T01:19:31.954Z,52.29
2022-08-22T01:20:31.957Z,51.8
2022-08-22T01:21:31.940Z,52.3
2022-08-22T01:22:31.937Z,51.99
2022-08-22T01:23:31.936Z,52.51
2022-08-22T01:24:31.948Z,52.32
2022-08-22T01:25:31.932Z,52.61
2022-08-22T01:26:31.941Z,52.27
2022-08-22T01:27:31.939Z,51.75
2022-08-22T01:28:31.928Z,51.65
2022-08-22T01:29:31.944Z,52.24
2022-08-22T01:30:31.937Z,51.82
2022-08-22T01:31:31.917Z,52.48
2022-08-22T01:32:31.923Z,52.05
2022-08-22T01:33:31.939Z,52.48
2022-08-22T01:34:31.919Z,52.28
2022-08-22T01:35:31.920Z,52.3
2022-08-22T01:36:31.931Z,51.56
2022-08-22T01:37:31.918Z,52.52
2022-08-22T01:38:31.917Z,51.74
2022-08-22T01:39:31.917Z,52.29
2022-08-22T01:40:31.918Z,52.42
2022-08-22T01:41:31.930Z,52.52
2022-08-22T01:42:31.913Z,52.28
2022-08-22T01:43:58.746Z,52.44
2022-08-22T01:44:31.923Z,52.08
2022-08-22T01:45:31.908Z,52.43
2022-08-22T01:46:31.906Z,52.33
2022-08-22T01:47:36.759Z,52.23
2022-08-22T01:48:32.046Z,52.28
2022-08-22T01:49:31.905Z,52.32
2022-08-22T01:50:31.908Z,52.12
2022-08-22T01:51:31.903Z,52.51
2022-08-22T01:52:31.911Z,52.51
2022-08-22T01:53:31.900Z,52.08
2022-08-22T01:54:31.897Z,51.82
2022-08-22T01:55:31.906Z,52.08
2022-08-22T01:56:31.905Z,52.43
2022-08-22T01:57:31.908Z,52.18
2022-08-22T01:58:31.896Z,52.51
2022-08-22T01:59:33.692Z,52.28
2022-08-22T02:00:35.291Z,52.3
2022-08-22T02:01:31.887Z,51.83
2022-08-22T02:02:31.906Z,51.47
2022-08-22T02:03:31.884Z,52.09
2022-08-22T02:04:31.889Z,51.8
2022-08-22T02:05:31.884Z,52.21
2022-08-22T02:06:31.885Z,51.75
2022-08-22T02:07:32.192Z,52.36
2022-08-22T02:08:31.887Z,52.52
2022-08-22T02:09:31.907Z,52.38
2022-08-22T02:10:31.887Z,52.18
2022-08-22T02:11:31.877Z,52.45
2022-08-22T02:12:31.892Z,51.98
2022-08-22T02:13:31.875Z,52.22
2022-08-22T02:14:31.875Z,51.91
2022-08-22T02:15:31.889Z,52.22
2022-08-22T02:16:31.873Z,51.92
2022-08-22T02:17:31.867Z,52.18
2022-08-22T02:18:31.868Z,51.89
2022-08-22T02:19:31.870Z,52.22
2022-08-22T02:20:31.887Z,52.05
2022-08-22T02:21:31.870Z,52.05
2022-08-22T02:22:31.869Z,51.64
2022-08-22T02:23:31.888Z,52.38
2022-08-22T02:24:31.860Z,52.17
2022-08-22T02:25:31.865Z,52.35
2022-08-22T02:26:31.867Z,51.61
2022-08-22T02:27:31.856Z,52.3
2022-08-22T02:28:31.899Z,52.01
2022-08-22T02:29:31.854Z,52.28
2022-08-22T02:30:31.854Z,52.23
2022-08-22T02:31:31.857Z,52.16
2022-08-22T02:32:31.859Z,51.49
2022-08-22T02:33:31.870Z,52.29
2022-08-22T02:34:31.960Z,51.8
2022-08-22T02:35:31.849Z,52.24
2022-08-22T02:36:31.867Z,51.63
2022-08-22T02:37:31.856Z,51.88
2022-08-22T02:38:31.848Z,52.1
2022-08-22T02:39:31.862Z,51.68
2022-08-22T02:40:31.844Z,51.86
2022-08-22T02:41:31.841Z,52.2
2022-08-22T02:42:31.839Z,51.71
2022-08-22T02:43:31.838Z,52.14
2022-08-22T02:44:31.860Z,51.83
2022-08-22T02:45:31.843Z,52.18
2022-08-22T02:46:31.836Z,52.02
2022-08-22T02:47:31.838Z,51.98
2022-08-22T02:48:31.831Z,51.35
2022-08-22T02:49:31.863Z,51.74
2022-08-22T02:50:31.827Z,51.24
2022-08-22T02:51:31.832Z,52.12
2022-08-22T02:52:31.833Z,51.46
2022-08-22T02:53:31.831Z,52.04
2022-08-22T02:54:31.857Z,51.6
2022-08-22T02:55:31.831Z,51.82
2022-08-22T02:56:31.821Z,51.91
2022-08-22T02:57:31.829Z,52.12
2022-08-22T02:58:31.824Z,51.98
2022-08-22T02:59:31.841Z,52.2
2022-08-22T03:00:33.307Z,51.98
2022-08-22T03:01:31.820Z,51.65
2022-08-22T03:02:31.817Z,51.78
2022-08-22T03:03:31.832Z,52.15
2022-08-22T03:04:31.822Z,51.69
2022-08-22T03:05:31.837Z,52.02
2022-08-22T03:06:31.835Z,51.95
2022-08-22T03:07:31.810Z,52.1
2022-08-22T03:08:31.815Z,51.5
2022-08-22T03:09:31.849Z,52.35
2022-08-22T03:10:31.812Z,51.91
2022-08-22T03:11:31.831Z,51.89
2022-08-22T03:12:31.808Z,52.06
2022-08-22T03:13:31.806Z,52.03
2022-08-22T03:14:31.808Z,51.7
2022-08-22T03:15:31.801Z,52.05
2022-08-22T03:16:31.819Z,52.07
2022-08-22T03:17:31.800Z,52.03
2022-08-22T03:18:31.807Z,51.9
2022-08-22T03:19:31.797Z,52.07
2022-08-22T03:20:31.809Z,51.34
2022-08-22T03:21:31.810Z,52.06
2022-08-22T03:22:31.809Z,52.01
2022-08-22T03:23:31.804Z,52.02
2022-08-22T03:24:31.799Z,51.58
2022-08-22T03:25:31.794Z,52
2022-08-22T03:26:31.803Z,51.9
2022-08-22T03:27:33.278Z,51.91
2022-08-22T03:28:31.787Z,51.64
2022-08-22T03:29:31.789Z,51.7
2022-08-22T03:30:31.799Z,51.14
2022-08-22T03:31:31.792Z,51.96
2022-08-22T03:32:31.783Z,51.72
2022-08-22T03:33:31.795Z,52.14
2022-08-22T03:34:31.785Z,51.87
2022-08-22T03:35:31.783Z,52.17
2022-08-22T03:36:31.793Z,51.12
2022-08-22T03:37:31.789Z,51.95
2022-08-22T03:38:31.773Z,51.91
2022-08-22T03:39:31.774Z,52
2022-08-22T03:40:32.108Z,51.65
2022-08-22T03:41:31.769Z,51.99
2022-08-22T03:42:31.785Z,52.09
2022-08-22T03:43:31.774Z,52
2022-08-22T03:44:31.773Z,52.05
2022-08-22T03:45:31.773Z,52.03
2022-08-22T03:46:31.773Z,51.83
2022-08-22T03:47:31.783Z,51.4
2022-08-22T03:48:31.765Z,51.5
2022-08-22T03:49:31.763Z,51.86
2022-08-22T03:50:31.759Z,51.17
2022-08-22T03:51:31.767Z,52.04
2022-08-22T03:52:31.775Z,51.87
2022-08-22T03:53:31.759Z,51.55
2022-08-22T03:54:31.760Z,51.56
2022-08-22T03:55:31.758Z,52.04
2022-08-22T03:56:31.760Z,51.61
2022-08-22T03:57:31.769Z,51.73
2022-08-22T03:58:31.759Z,51.91
2022-08-22T03:59:31.755Z,51.99
2022-08-22T04:00:31.799Z,51.76
2022-08-22T04:01:31.764Z,51.73
2022-08-22T04:02:42.868Z,51.16
2022-08-22T04:03:31.746Z,51.58
2022-08-22T04:04:31.744Z,51.33
2022-08-22T04:05:31.759Z,51.96
2022-08-22T04:06:31.757Z,52.15
2022-08-22T04:07:33.334Z,52.1
2022-08-22T04:08:31.749Z,51.47
2022-08-22T04:09:31.777Z,51.83
2022-08-22T04:10:31.740Z,51.51
2022-08-22T04:11:31.749Z,51.82
2022-08-22T04:12:31.733Z,51.89
2022-08-22T04:13:31.756Z,52
2022-08-22T04:14:31.741Z,52.03
2022-08-22T04:15:31.745Z,51.95
2022-08-22T04:16:31.738Z,52
2022-08-22T04:17:31.731Z,51.99
2022-08-22T04:18:33.381Z,52.2
2022-08-22T04:19:31.732Z,51.9
2022-08-22T04:20:31.723Z,51.72
2022-08-22T04:21:31.728Z,52.11
2022-08-22T04:22:31.726Z,52.14
2022-08-22T04:23:31.736Z,52
2022-08-22T04:24:31.734Z,51.74
2022-08-22T04:25:31.722Z,51.89
2022-08-22T04:26:31.722Z,51.81
2022-08-22T04:27:31.720Z,52.1
2022-08-22T04:28:31.732Z,51.86
2022-08-22T04:29:31.722Z,52.2
2022-08-22T04:30:31.724Z,52.18
2022-08-22T04:31:31.723Z,52.34
2022-08-22T04:32:31.715Z,52.32
2022-08-22T04:33:31.725Z,52.28
2022-08-22T04:34:31.709Z,52.36
2022-08-22T04:35:31.712Z,52.32
2022-08-22T04:36:31.712Z,52.33
2022-08-22T04:37:31.713Z,52.2
2022-08-22T04:38:31.729Z,52.06
2022-08-22T04:39:31.706Z,52.13
2022-08-22T04:40:31.709Z,51.89
2022-08-22T04:41:31.705Z,52.36
2022-08-22T04:42:33.237Z,52.44
2022-08-22T04:43:31.713Z,52.4
2022-08-22T04:44:31.721Z,52.08
2022-08-22T04:45:31.701Z,51.98
2022-08-22T04:46:36.619Z,52
2022-08-22T04:47:31.694Z,52.28
2022-08-22T04:48:31.691Z,52.1
2022-08-22T04:49:31.711Z,52.39
2022-08-22T04:50:31.696Z,52.6
2022-08-22T04:51:31.691Z,52.2
2022-08-22T04:52:31.693Z,51.71
2022-08-22T04:53:31.715Z,52.01
2022-08-22T04:54:31.705Z,51.82
2022-08-22T04:55:31.687Z,52.27
2022-08-22T04:56:31.692Z,52.01
2022-08-22T04:57:31.691Z,52.48
2022-08-22T04:58:31.687Z,52.34
2022-08-22T04:59:31.690Z,51.98
2022-08-22T05:00:31.698Z,52.03
2022-08-22T05:01:31.752Z,52.26
2022-08-22T05:02:31.682Z,52.75
2022-08-22T05:03:31.683Z,52.67
2022-08-22T05:04:31.679Z,52.37
2022-08-22T05:05:31.689Z,52.28
2022-08-22T05:06:31.675Z,52.44
2022-08-22T05:07:33.955Z,52.53
2022-08-22T05:08:31.672Z,52.61
2022-08-22T05:09:31.687Z,52.46
2022-08-22T05:10:31.699Z,52.29
2022-08-22T05:11:31.704Z,52.68
2022-08-22T05:12:31.759Z,52.94
2022-08-22T05:13:31.675Z,52.25
2022-08-22T05:14:31.669Z,52.57
2022-08-22T05:15:31.666Z,52.87
2022-08-22T05:16:31.682Z,52.51
2022-08-22T05:17:31.677Z,52.21
2022-08-22T05:18:31.663Z,52.34
2022-08-22T05:19:32.379Z,52.64
2022-08-22T05:20:31.661Z,52.24
2022-08-22T05:21:31.664Z,52.54
2022-08-22T05:22:31.669Z,52.5
2022-08-22T05:23:31.667Z,52.71
2022-08-22T05:24:31.651Z,52.48
2022-08-22T05:25:31.687Z,52.45
2022-08-22T05:26:31.652Z,52.59
2022-08-22T05:27:31.760Z,51.93
2022-08-22T05:28:31.651Z,52.22
2022-08-22T05:29:31.654Z,52.46
2022-08-22T05:30:31.659Z,52.36
2022-08-22T05:31:31.649Z,52.44
2022-08-22T05:32:31.640Z,52.11
2022-08-22T05:33:31.643Z,52.48
2022-08-22T05:34:31.647Z,52.46
2022-08-22T05:35:31.652Z,52.37
2022-08-22T05:36:31.636Z,52.47
2022-08-22T05:37:31.642Z,52.38
2022-08-22T05:38:31.639Z,52.14
2022-08-22T05:39:31.635Z,52.59
2022-08-22T05:40:31.656Z,52.58
2022-08-22T05:41:31.643Z,52.02
2022-08-22T05:42:31.638Z,52
2022-08-22T05:43:31.645Z,52.44
2022-08-22T05:44:31.632Z,51.44
2022-08-22T05:45:31.641Z,51.72
2022-08-22T05:46:31.653Z,51.68
2022-08-22T05:47:31.632Z,52.37
2022-08-22T05:48:31.630Z,52.63
2022-08-22T05:49:31.626Z,52.09
2022-08-22T05:50:31.628Z,52.02
2022-08-22T05:51:31.637Z,52.92
2022-08-22T05:52:31.636Z,52.72
2022-08-22T05:53:31.628Z,51.85
2022-08-22T05:54:34.266Z,52.75
2022-08-22T05:55:31.615Z,52.64
2022-08-22T05:56:31.635Z,52.72
2022-08-22T05:57:31.612Z,52.46
2022-08-22T05:58:31.617Z,52.01
2022-08-22T05:59:31.629Z,52.1
2022-08-22T06:00:31.618Z,52.16
2022-08-22T06:01:31.701Z,52.8
2022-08-22T06:02:31.605Z,52.65
2022-08-22T06:03:31.613Z,52.16
2022-08-22T06:04:31.622Z,52.8
2022-08-22T06:05:31.605Z,52.77
2022-08-22T06:06:31.609Z,53.17
2022-08-22T06:07:31.617Z,53.12
2022-08-22T06:08:31.600Z,52.76
2022-08-22T06:09:35.378Z,52.6
2022-08-22T06:10:31.624Z,52.74
2022-08-22T06:11:33.843Z,52.78
2022-08-22T06:12:31.649Z,52.64
2022-08-22T06:13:31.601Z,52.63
2022-08-22T06:14:31.597Z,51.94
2022-08-22T06:15:31.591Z,51.83
2022-08-22T06:16:31.597Z,52.27
2022-08-22T06:17:31.603Z,52.14
2022-08-22T06:18:31.599Z,52.21
2022-08-22T06:19:31.592Z,51.36
2022-08-22T06:20:31.589Z,51.17
2022-08-22T06:21:38.496Z,52.12
2022-08-22T06:22:31.589Z,52.93
2022-08-22T06:23:31.585Z,52.59
2022-08-22T06:24:31.585Z,52.58
2022-08-22T06:25:31.578Z,52.06
2022-08-22T06:26:31.873Z,52.27
2022-08-22T06:27:31.623Z,52.57
2022-08-22T06:28:31.582Z,52.54
2022-08-22T06:29:31.596Z,52.55
2022-08-22T06:30:31.576Z,52.45
2022-08-22T06:31:31.575Z,52.54
2022-08-22T06:32:44.428Z,52.58
2022-08-22T06:33:31.579Z,52.9
2022-08-22T06:34:31.578Z,52.95
2022-08-22T06:35:31.573Z,52.99
2022-08-22T06:36:31.577Z,52.83
2022-08-22T06:37:31.581Z,52.9
2022-08-22T06:38:31.565Z,52.37
2022-08-22T06:39:31.570Z,52.64
2022-08-22T06:40:31.567Z,53.06
2022-08-22T06:41:31.583Z,52.9
2022-08-22T06:42:31.577Z,52.38
2022-08-22T06:43:31.563Z,52.75
2022-08-22T06:44:31.565Z,52.07
2022-08-22T06:45:31.569Z,52.39
2022-08-22T06:46:31.556Z,52.18
2022-08-22T06:47:31.579Z,51.96
2022-08-22T06:48:31.556Z,51.46
2022-08-22T06:49:31.562Z,51.9
2022-08-22T06:50:31.562Z,52.2
2022-08-22T06:51:31.560Z,52.9
2022-08-22T06:52:31.568Z,52.44
2022-08-22T06:53:31.552Z,52.49
2022-08-22T06:54:34.351Z,52.89
2022-08-22T06:55:31.553Z,52.23
2022-08-22T06:56:31.554Z,52.07
2022-08-22T06:57:31.563Z,51.98
2022-08-22T06:58:34.158Z,51.92
2022-08-22T06:59:31.543Z,52.35
2022-08-22T07:00:31.547Z,52.27
2022-08-22T07:01:31.581Z,51.9
2022-08-22T07:02:31.561Z,52.15
2022-08-22T07:03:31.539Z,51.98
2022-08-22T07:04:31.563Z,52.2
2022-08-22T07:05:31.544Z,52.65
2022-08-22T07:06:31.553Z,52.05
2022-08-22T07:07:31.546Z,52.45
2022-08-22T07:08:33.205Z,51.64
2022-08-22T07:09:31.543Z,52.07
2022-08-22T07:10:31.560Z,51.48
2022-08-22T07:11:31.534Z,53.23
2022-08-22T07:12:31.539Z,53.1
2022-08-22T07:13:31.540Z,53.64
2022-08-22T07:14:31.527Z,52.55
2022-08-22T07:15:31.522Z,54.6
2022-08-22T07:16:31.546Z,54.78
2022-08-22T07:17:31.527Z,55.03
2022-08-22T07:18:31.525Z,54.77
2022-08-22T07:19:31.517Z,55.45
2022-08-22T07:20:31.523Z,54.07
2022-08-22T07:21:32.580Z,54.94
2022-08-22T07:22:31.520Z,54.13
2022-08-22T07:23:31.527Z,55.57
2022-08-22T07:24:31.540Z,55.01
2022-08-22T07:25:31.517Z,53.84
2022-08-22T07:26:31.534Z,54.26
2022-08-22T07:27:31.522Z,55.12
2022-08-22T07:28:36.687Z,54
2022-08-22T07:29:32.559Z,54.77
2022-08-22T07:30:31.513Z,54.52
2022-08-22T07:31:31.822Z,54.29
2022-08-22T07:32:31.532Z,55.17
2022-08-22T07:33:31.513Z,54.25
2022-08-22T07:34:31.501Z,53.98
2022-08-22T07:35:31.512Z,55.43
2022-08-22T07:36:32.126Z,54.81
2022-08-22T07:37:31.510Z,53.88
2022-08-22T07:38:31.498Z,53.48
2022-08-22T07:39:31.494Z,54.62
2022-08-22T07:40:31.500Z,53.73
2022-08-22T07:41:31.497Z,53.63
2022-08-22T07:42:31.516Z,53.09
2022-08-22T07:43:31.501Z,53.18
2022-08-22T07:44:31.502Z,52.92
2022-08-22T07:45:31.517Z,53.7
2022-08-22T07:46:31.493Z,54.82
2022-08-22T07:47:31.495Z,55.75
2022-08-22T07:48:31.486Z,55.98
2022-08-22T07:49:31.491Z,55.27
2022-08-22T07:50:31.503Z,56.42
2022-08-22T07:51:31.486Z,56.77
2022-08-22T07:52:31.493Z,57.29
2022-08-22T07:53:31.497Z,58.58
2022-08-22T07:54:31.479Z,57.99
2022-08-22T07:55:31.482Z,56.4
2022-08-22T07:56:31.475Z,56.19
2022-08-22T07:57:31.487Z,56.39
2022-08-22T07:58:31.481Z,56.03
2022-08-22T07:59:31.476Z,56.48
2022-08-22T08:00:31.475Z,56.14
2022-08-22T08:01:31.559Z,56.17
2022-08-22T08:02:31.481Z,55.65
2022-08-22T08:03:31.490Z,55.92
2022-08-22T08:04:31.470Z,56.68
2022-08-22T08:05:31.481Z,57.74
2022-08-22T08:06:31.471Z,56.92
2022-08-22T08:07:31.464Z,56.37
2022-08-22T08:08:31.471Z,55.9
2022-08-22T08:09:31.469Z,56.26
2022-08-22T08:10:31.513Z,56.49
2022-08-22T08:11:31.464Z,56.01
2022-08-22T08:12:31.472Z,55.65
2022-08-22T08:13:31.460Z,56.52
2022-08-22T08:14:31.462Z,56.26
2022-08-22T08:15:31.459Z,55.64
2022-08-22T08:16:31.457Z,56.03
2022-08-22T08:17:32.360Z,56.56
2022-08-22T08:18:31.452Z,56.56
2022-08-22T08:19:31.457Z,56.06
2022-08-22T08:20:31.452Z,55.68
2022-08-22T08:21:31.457Z,55.87
2022-08-22T08:22:31.462Z,56.2
2022-08-22T08:23:31.450Z,56.38
2022-08-22T08:24:32.233Z,54.81
2022-08-22T08:25:31.453Z,55.59
2022-08-22T08:26:31.445Z,54.58
2022-08-22T08:27:31.454Z,55.01
2022-08-22T08:28:31.439Z,54.76
2022-08-22T08:29:31.440Z,54.96
2022-08-22T08:30:31.444Z,53.41
2022-08-22T08:31:31.453Z,55.77
2022-08-22T08:32:31.455Z,55.26
2022-08-22T08:33:31.429Z,54.89
2022-08-22T08:34:31.437Z,55.07
2022-08-22T08:35:31.435Z,55.12
2022-08-22T08:36:31.433Z,55.08
2022-08-22T08:37:31.441Z,55.26
2022-08-22T08:38:31.434Z,54.9
2022-08-22T08:39:35.513Z,55.6
2022-08-22T08:40:31.429Z,55.62
2022-08-22T08:41:31.465Z,56.03
2022-08-22T08:42:31.423Z,54.49
2022-08-22T08:43:31.421Z,55.31
2022-08-22T08:44:31.424Z,56.68
2022-08-22T08:45:31.425Z,56.48
2022-08-22T08:46:31.443Z,57.45
2022-08-22T08:47:31.422Z,56.68
2022-08-22T08:48:31.435Z,55.71
2022-08-22T08:49:31.419Z,57.34
2022-08-22T08:50:31.421Z,57.06
2022-08-22T08:51:31.429Z,57.2
2022-08-22T08:52:31.415Z,57.21
2022-08-22T08:53:31.428Z,57.16
2022-08-22T08:54:31.414Z,56.75
2022-08-22T08:55:31.414Z,56.49
2022-08-22T08:56:31.426Z,56.38
2022-08-22T08:57:31.423Z,56.33
2022-08-22T08:58:31.436Z,55.98
2022-08-22T08:59:31.424Z,55.85
2022-08-22T09:00:31.414Z,55.92
2022-08-22T09:01:31.458Z,56.21
2022-08-22T09:02:34.939Z,55.79
2022-08-22T09:03:31.425Z,55.48
2022-08-22T09:04:31.402Z,55.49
2022-08-22T09:05:31.407Z,55.6
2022-08-22T09:06:31.407Z,54.98
2022-08-22T09:07:31.471Z,54.88
2022-08-22T09:08:31.407Z,53.94
2022-08-22T09:09:31.411Z,54.65
2022-08-22T09:10:31.425Z,53.66
2022-08-22T09:11:31.411Z,54.18
2022-08-22T09:12:31.410Z,54.29
2022-08-22T09:14:31.395Z,53.42
2022-08-22T09:15:31.414Z,54.24
2022-08-22T09:16:31.403Z,54.2
2022-08-22T09:17:31.395Z,54.2
2022-08-22T09:18:31.396Z,54.08
2022-08-22T09:19:31.403Z,54.42
2022-08-22T09:20:31.404Z,53.94
2022-08-22T09:21:31.646Z,54.8
2022-08-22T09:22:33.464Z,54.67
2022-08-22T09:23:31.381Z,54.37
2022-08-22T09:24:31.392Z,54.7
2022-08-22T09:25:38.386Z,54.28
2022-08-22T09:26:31.393Z,54.15
2022-08-22T09:27:31.390Z,55.66
2022-08-22T09:28:31.399Z,54.87
2022-08-22T09:29:31.389Z,54.59
2022-08-22T09:30:31.376Z,54.19
2022-08-22T09:31:48.403Z,54.63
2022-08-22T09:32:31.374Z,54.97
2022-08-22T09:33:31.391Z,55.57
2022-08-22T09:34:31.373Z,57.38
2022-08-22T09:35:31.370Z,56.96
2022-08-22T09:36:31.374Z,56.93
2022-08-22T09:37:31.376Z,57.63
2022-08-22T09:38:31.380Z,58.14
2022-08-22T09:39:31.387Z,57.81
2022-08-22T09:40:31.374Z,57.03
2022-08-22T09:41:31.367Z,58.78
2022-08-22T09:42:31.368Z,57.34
2022-08-22T09:43:33.792Z,57.08
2022-08-22T09:44:31.374Z,56.14
2022-08-22T09:45:31.361Z,56.76
2022-08-22T09:46:34.718Z,56.42
2022-08-22T09:47:32.743Z,56.56
2022-08-22T09:48:31.383Z,55.75
2022-08-22T09:49:31.396Z,55.84
2022-08-22T09:50:31.376Z,55.64
2022-08-22T09:51:33.144Z,55.46
2022-08-22T09:52:33.927Z,55.51
2022-08-22T09:53:31.389Z,56.13
2022-08-22T09:54:32.738Z,55.96
2022-08-22T09:55:34.975Z,56.13
2022-08-22T09:56:31.389Z,56.03
2022-08-22T09:57:31.370Z,56.06
2022-08-22T09:58:31.366Z,56.04
2022-08-22T09:59:31.379Z,56.26
2022-08-22T10:00:31.410Z,55.65
2022-08-22T10:01:32.986Z,56.22
2022-08-22T10:02:31.368Z,55.81
2022-08-22T10:03:31.368Z,55.96
2022-08-22T10:04:31.381Z,55.81
2022-08-22T10:05:41.080Z,55.82
2022-08-22T10:06:31.356Z,55.27
2022-08-22T10:07:31.355Z,55.34
2022-08-22T10:08:31.371Z,54.79
2022-08-22T10:09:32.088Z,54.78
2022-08-22T10:10:31.383Z,54.18
2022-08-22T10:11:31.356Z,54.4
2022-08-22T10:12:35.977Z,55.39
2022-08-22T10:13:31.364Z,56.02
2022-08-22T10:14:31.353Z,55.44
2022-08-22T10:15:31.372Z,56.1
2022-08-22T10:16:31.363Z,55.46
2022-08-22T10:17:32.334Z,55.73
2022-08-22T10:18:31.381Z,55.65
2022-08-22T10:19:31.350Z,55.13
2022-08-22T10:20:31.349Z,55.14
2022-08-22T10:21:31.366Z,55.85
2022-08-22T10:22:31.339Z,55.32
2022-08-22T10:23:31.360Z,54.72
2022-08-22T10:24:31.363Z,54.57
2022-08-22T10:25:31.333Z,54.96
2022-08-22T10:26:35.247Z,54.84
2022-08-22T10:27:31.333Z,54.86
2022-08-22T10:28:31.336Z,54.42
2022-08-22T10:29:31.347Z,54.52
2022-08-22T10:30:31.333Z,54.58
2022-08-22T10:31:31.334Z,54.41
2022-08-22T10:32:31.335Z,54.68
2022-08-22T10:33:31.332Z,54.44
2022-08-22T10:34:31.340Z,55.19
2022-08-22T10:35:33.926Z,55.42
2022-08-22T10:36:31.321Z,55.13
2022-08-22T10:37:31.334Z,55.81
2022-08-22T10:38:31.324Z,55.84
2022-08-22T10:39:32.594Z,55.44
2022-08-22T10:40:31.319Z,55.06
2022-08-22T10:41:31.324Z,54.69
2022-08-22T10:42:35.661Z,54.8
2022-08-22T10:43:31.320Z,55.07
2022-08-22T10:44:31.355Z,54.35
2022-08-22T10:45:36.832Z,54.43
2022-08-22T10:46:31.314Z,54.04
2022-08-22T10:47:31.314Z,54
2022-08-22T10:48:31.317Z,53.91
2022-08-22T10:49:31.344Z,54
2022-08-22T10:50:31.826Z,53.65
2022-08-22T10:51:31.307Z,53.8
2022-08-22T10:52:31.305Z,53.72
2022-08-22T10:53:31.309Z,53.8
2022-08-22T10:54:31.330Z,52.86
2022-08-22T10:55:31.302Z,54.24
2022-08-22T10:56:31.301Z,54.23
2022-08-22T10:57:31.308Z,54.83
2022-08-22T10:58:31.302Z,54.02
2022-08-22T10:59:31.311Z,54.16
2022-08-22T11:00:31.402Z,53.6
2022-08-22T11:01:38.573Z,54.27
2022-08-22T11:02:31.297Z,53.85
2022-08-22T11:03:31.297Z,54.24
2022-08-22T11:04:31.294Z,54.52
2022-08-22T11:05:31.308Z,54.01
2022-08-22T11:06:31.295Z,54.24
2022-08-22T11:07:31.308Z,54.5
2022-08-22T11:08:31.291Z,54.82
2022-08-22T11:09:36.195Z,54.32
2022-08-22T11:10:31.325Z,54.07
2022-08-22T11:11:32.771Z,54.09
2022-08-22T11:12:34.602Z,54.46
2022-08-22T11:13:31.291Z,54.23
2022-08-22T11:14:31.294Z,54.89
2022-08-22T11:15:34.960Z,54.99
2022-08-22T11:16:31.275Z,55.12
2022-08-22T11:17:34.558Z,56.11
2022-08-22T11:18:31.293Z,55.68
2022-08-22T11:19:31.272Z,56.63
2022-08-22T11:20:31.269Z,56.99
2022-08-22T11:21:31.269Z,56.75
2022-08-22T11:22:31.296Z,55.6
2022-08-22T11:23:31.294Z,55.74
2022-08-22T11:24:35.460Z,55.25
2022-08-22T11:25:38.401Z,55.77
2022-08-22T11:26:38.359Z,55.68
2022-08-22T11:27:37.871Z,55.26
2022-08-22T11:28:31.265Z,54.34
2022-08-22T11:29:31.263Z,54.61
2022-08-22T11:30:31.268Z,53.97
2022-08-22T11:31:31.630Z,54.08
2022-08-22T11:32:31.284Z,54.6
2022-08-22T11:33:46.153Z,54.17
2022-08-22T11:34:31.275Z,54.13
2022-08-22T11:35:31.260Z,54.27
2022-08-22T11:36:31.459Z,53.78
2022-08-22T11:37:42.792Z,54.12
2022-08-22T11:38:32.630Z,54.13
2022-08-22T11:39:31.269Z,54.78
2022-08-22T11:40:31.314Z,54.69
2022-08-22T11:41:31.258Z,54.87
2022-08-22T11:42:31.268Z,54.42
2022-08-22T11:43:32.579Z,54.35
2022-08-22T11:44:31.295Z,54.29
2022-08-22T11:45:31.250Z,54.16
2022-08-22T11:46:31.250Z,54.17
2022-08-22T11:47:31.242Z,53.85
2022-08-22T11:48:31.254Z,53.89
2022-08-22T11:49:31.765Z,54.15
2022-08-22T11:50:31.246Z,55.14
2022-08-22T11:51:34.266Z,54.48
2022-08-22T11:52:31.235Z,55.08
2022-08-22T11:53:31.234Z,55.84
2022-08-22T11:54:31.533Z,55.24
2022-08-22T11:55:33.287Z,55.85
2022-08-22T11:56:31.229Z,55.13
2022-08-22T11:57:31.230Z,54.8
2022-08-22T11:58:31.251Z,55.02
2022-08-22T11:59:31.227Z,54.52
2022-08-22T12:00:31.231Z,54.47
2022-08-22T12:01:34.523Z,55.18
2022-08-22T12:02:31.337Z,55.92
2022-08-22T12:03:31.258Z,55.73
2022-08-22T12:04:31.227Z,55.94
2022-08-22T12:05:31.220Z,56.11
2022-08-22T12:06:31.226Z,56.88
2022-08-22T12:07:31.244Z,56.08
2022-08-22T12:08:31.226Z,55.46
2022-08-22T12:09:31.237Z,54.68
2022-08-22T12:10:31.241Z,55.2
2022-08-22T12:11:31.248Z,55.68
2022-08-22T12:12:31.231Z,55.47
2022-08-22T12:13:34.848Z,56.5
2022-08-22T12:14:31.235Z,56.11
2022-08-22T12:15:33.414Z,57.36
2022-08-22T12:16:31.236Z,56.39
2022-08-22T12:17:55.741Z,57.11
2022-08-22T12:18:31.218Z,56.77
2022-08-22T12:19:32.725Z,56.91
2022-08-22T12:20:31.213Z,56.11
2022-08-22T12:21:31.220Z,57.09
2022-08-22T12:22:31.231Z,56.14
2022-08-22T12:23:43.648Z,56.85
2022-08-22T12:24:31.246Z,56.83
2022-08-22T12:25:31.213Z,57.62
2022-08-22T12:26:31.216Z,56.45
2022-08-22T12:27:31.208Z,57.26
2022-08-22T12:28:31.213Z,55.76
2022-08-22T12:29:33.985Z,56.71
2022-08-22T12:30:31.206Z,57.24
2022-08-22T12:31:31.203Z,56.21
2022-08-22T12:32:31.208Z,56.19
2022-08-22T12:33:31.201Z,55.68
2022-08-22T12:34:31.216Z,55.34
2022-08-22T12:35:31.220Z,56.69
2022-08-22T12:36:31.210Z,56.06
2022-08-22T12:37:31.202Z,56.31
2022-08-22T12:38:33.691Z,55.24
2022-08-22T12:39:31.216Z,56.59
2022-08-22T12:40:31.307Z,56.34
2022-08-22T12:41:35.148Z,57.25
2022-08-22T12:42:31.196Z,57.51
2022-08-22T12:43:32.410Z,58.57
2022-08-22T12:44:31.229Z,58.72
2022-08-22T12:45:31.194Z,59.49
2022-08-22T12:46:31.188Z,59.05
2022-08-22T12:47:32.208Z,60.11
2022-08-22T12:48:31.191Z,60.01
2022-08-22T12:49:31.208Z,60.65
2022-08-22T12:50:31.508Z,60.26
2022-08-22T12:51:31.186Z,61.01
2022-08-22T12:52:31.178Z,60.07